sensor_id;sensor_type;location;lat;lon;timestamp;P1;durP1;ratioP1;P2;durP2;ratioP2
4414;SDS011;2220;42.670;23.398;2022-08-01T00:02:01;5.43;;;4.30;;
4414;SDS011;2220;42.670;23.398;2022-08-01T00:04:26;5.30;;;4.45;;
4414;SDS011;2220;42.670;23.398;2022-08-01T00:06:51;6.57;;;6.07;;
4414;SDS011;2220;42.670;23.398;2022-08-01T00:09:16;8.23;;;5.85;;
4414;SDS011;2220;42.670;23.398;2022-08-01T00:11:42;8.20;;;5.65;;
4414;SDS011;2220;42.670;23.398;2022-08-01T00:14:07;7.22;;;6.53;;
4414;SDS011;2220;42.670;23.398;2022-08-01T00:16:34;9.10;;;6.28;;
4414;SDS011;2220;42.670;23.398;2022-08-01T00:18:59;6.60;;;6.00;;
4414;SDS011;2220;42.670;23.398;2022-08-01T00:21:25;7.47;;;6.88;;
4414;SDS011;2220;42.670;23.398;2022-08-01T00:23:50;8.20;;;6.50;;
4414;SDS011;2220;42.670;23.398;2022-08-01T00:26:15;7.25;;;6.57;;
4414;SDS011;2220;42.670;23.398;2022-08-01T00:28:40;10.23;;;6.45;;
4414;SDS011;2220;42.670;23.398;2022-08-01T00:31:06;9.82;;;7.45;;
4414;SDS011;2220;42.670;23.398;2022-08-01T00:33:31;9.32;;;6.45;;
4414;SDS011;2220;42.670;23.398;2022-08-01T00:35:57;7.20;;;6.50;;
4414;SDS011;2220;42.670;23.398;2022-08-01T00:38:22;8.30;;;6.75;;
4414;SDS011;2220;42.670;23.398;2022-08-01T00:40:47;8.30;;;7.43;;
4414;SDS011;2220;42.670;23.398;2022-08-01T00:43:13;6.95;;;6.35;;
4414;SDS011;2220;42.670;23.398;2022-08-01T00:45:38;7.10;;;5.95;;
4414;SDS011;2220;42.670;23.398;2022-08-01T00:48:04;6.75;;;6.25;;
4414;SDS011;2220;42.670;23.398;2022-08-01T00:50:29;7.68;;;5.38;;
4414;SDS011;2220;42.670;23.398;2022-08-01T00:52:54;5.70;;;5.28;;
4414;SDS011;2220;42.670;23.398;2022-08-01T00:55:20;5.70;;;5.20;;
4414;SDS011;2220;42.670;23.398;2022-08-01T00:57:45;8.52;;;4.90;;
4414;SDS011;2220;42.670;23.398;2022-08-01T01:00:11;5.63;;;4.93;;
4414;SDS011;2220;42.670;23.398;2022-08-01T01:02:37;5.63;;;5.20;;
4414;SDS011;2220;42.670;23.398;2022-08-01T01:05:02;9.57;;;5.03;;
4414;SDS011;2220;42.670;23.398;2022-08-01T01:09:58;5.22;;;4.72;;
4414;SDS011;2220;42.670;23.398;2022-08-01T01:12:34;5.45;;;5.05;;
4414;SDS011;2220;42.670;23.398;2022-08-01T01:17:46;6.82;;;4.90;;
4414;SDS011;2220;42.670;23.398;2022-08-01T01:20:13;5.07;;;4.60;;
4414;SDS011;2220;42.670;23.398;2022-08-01T01:22:47;7.20;;;4.55;;
4414;SDS011;2220;42.670;23.398;2022-08-01T01:30:33;4.25;;;3.85;;
4414;SDS011;2220;42.670;23.398;2022-08-01T01:33:00;5.03;;;4.20;;
4414;SDS011;2220;42.670;23.398;2022-08-01T01:35:27;4.32;;;4.07;;
4414;SDS011;2220;42.670;23.398;2022-08-01T01:38:10;6.13;;;5.63;;
4414;SDS011;2220;42.670;23.398;2022-08-01T01:40:38;7.20;;;6.47;;
4414;SDS011;2220;42.670;23.398;2022-08-01T01:43:04;7.40;;;5.95;;
4414;SDS011;2220;42.670;23.398;2022-08-01T01:45:32;6.35;;;5.85;;
4414;SDS011;2220;42.670;23.398;2022-08-01T01:47:57;6.63;;;5.95;;
4414;SDS011;2220;42.670;23.398;2022-08-01T01:50:23;6.95;;;6.40;;
4414;SDS011;2220;42.670;23.398;2022-08-01T01:52:50;9.32;;;6.95;;
4414;SDS011;2220;42.670;23.398;2022-08-01T01:55:16;8.05;;;6.82;;
4414;SDS011;2220;42.670;23.398;2022-08-01T01:57:42;7.32;;;6.30;;
4414;SDS011;2220;42.670;23.398;2022-08-01T02:00:09;5.63;;;5.00;;
4414;SDS011;2220;42.670;23.398;2022-08-01T02:02:38;4.68;;;4.18;;
4414;SDS011;2220;42.670;23.398;2022-08-01T02:05:05;6.43;;;4.70;;
4414;SDS011;2220;42.670;23.398;2022-08-01T02:07:30;4.32;;;3.92;;
4414;SDS011;2220;42.670;23.398;2022-08-01T02:09:57;5.72;;;4.03;;
4414;SDS011;2220;42.670;23.398;2022-08-01T02:12:24;7.72;;;5.32;;
4414;SDS011;2220;42.670;23.398;2022-08-01T02:14:50;10.65;;;9.35;;
4414;SDS011;2220;42.670;23.398;2022-08-01T02:17:19;6.13;;;5.53;;
4414;SDS011;2220;42.670;23.398;2022-08-01T02:19:45;8.90;;;4.90;;
4414;SDS011;2220;42.670;23.398;2022-08-01T02:27:14;4.00;;;3.73;;
4414;SDS011;2220;42.670;23.398;2022-08-01T02:29:42;5.70;;;5.18;;
4414;SDS011;2220;42.670;23.398;2022-08-01T02:32:10;4.40;;;4.10;;
4414;SDS011;2220;42.670;23.398;2022-08-01T02:34:36;5.47;;;4.95;;
4414;SDS011;2220;42.670;23.398;2022-08-01T02:37:03;7.82;;;5.00;;
4414;SDS011;2220;42.670;23.398;2022-08-01T02:39:28;7.05;;;5.35;;
4414;SDS011;2220;42.670;23.398;2022-08-01T02:41:55;6.90;;;5.88;;
4414;SDS011;2220;42.670;23.398;2022-08-01T02:44:27;10.15;;;5.30;;
4414;SDS011;2220;42.670;23.398;2022-08-01T02:46:57;6.22;;;5.63;;
4414;SDS011;2220;42.670;23.398;2022-08-01T02:49:23;10.73;;;5.75;;
4414;SDS011;2220;42.670;23.398;2022-08-01T02:51:48;7.85;;;6.70;;
4414;SDS011;2220;42.670;23.398;2022-08-01T02:54:15;9.10;;;6.68;;
4414;SDS011;2220;42.670;23.398;2022-08-01T02:56:42;8.38;;;7.43;;
4414;SDS011;2220;42.670;23.398;2022-08-01T02:59:09;8.40;;;7.60;;
4414;SDS011;2220;42.670;23.398;2022-08-01T03:01:36;10.13;;;6.25;;
4414;SDS011;2220;42.670;23.398;2022-08-01T03:04:03;6.22;;;5.63;;
4414;SDS011;2220;42.670;23.398;2022-08-01T03:06:29;5.05;;;4.57;;
4414;SDS011;2220;42.670;23.398;2022-08-01T03:08:55;6.65;;;4.90;;
4414;SDS011;2220;42.670;23.398;2022-08-01T03:11:20;5.40;;;4.90;;
4414;SDS011;2220;42.670;23.398;2022-08-01T03:13:48;6.82;;;3.67;;
4414;SDS011;2220;42.670;23.398;2022-08-01T03:16:13;5.15;;;4.75;;
4414;SDS011;2220;42.670;23.398;2022-08-01T03:18:40;4.70;;;4.30;;
4414;SDS011;2220;42.670;23.398;2022-08-01T03:21:06;4.95;;;4.53;;
4414;SDS011;2220;42.670;23.398;2022-08-01T03:23:31;7.28;;;4.78;;
4414;SDS011;2220;42.670;23.398;2022-08-01T03:25:57;5.07;;;3.88;;
4414;SDS011;2220;42.670;23.398;2022-08-01T03:28:24;4.53;;;4.10;;
4414;SDS011;2220;42.670;23.398;2022-08-01T03:30:50;7.82;;;4.32;;
4414;SDS011;2220;42.670;23.398;2022-08-01T03:33:16;6.57;;;5.18;;
4414;SDS011;2220;42.670;23.398;2022-08-01T03:35:48;6.50;;;3.90;;
4414;SDS011;2220;42.670;23.398;2022-08-01T03:38:16;6.53;;;3.88;;
4414;SDS011;2220;42.670;23.398;2022-08-01T03:40:45;26.90;;;16.45;;
4414;SDS011;2220;42.670;23.398;2022-08-01T03:43:14;18.85;;;12.27;;
4414;SDS011;2220;42.670;23.398;2022-08-01T03:45:41;17.23;;;10.20;;
4414;SDS011;2220;42.670;23.398;2022-08-01T03:48:10;5.60;;;4.82;;
4414;SDS011;2220;42.670;23.398;2022-08-01T03:50:39;9.02;;;3.97;;
4414;SDS011;2220;42.670;23.398;2022-08-01T03:53:06;7.88;;;4.20;;
4414;SDS011;2220;42.670;23.398;2022-08-01T03:55:34;10.10;;;6.53;;
4414;SDS011;2220;42.670;23.398;2022-08-01T03:58:02;8.80;;;6.90;;
4414;SDS011;2220;42.670;23.398;2022-08-01T04:00:28;7.65;;;4.68;;
4414;SDS011;2220;42.670;23.398;2022-08-01T04:02:54;6.97;;;4.40;;
4414;SDS011;2220;42.670;23.398;2022-08-01T04:05:20;9.93;;;6.97;;
4414;SDS011;2220;42.670;23.398;2022-08-01T04:07:46;13.77;;;6.03;;
4414;SDS011;2220;42.670;23.398;2022-08-01T04:10:11;14.65;;;6.75;;
4414;SDS011;2220;42.670;23.398;2022-08-01T04:12:37;15.57;;;5.97;;
4414;SDS011;2220;42.670;23.398;2022-08-01T04:15:03;9.88;;;6.03;;
4414;SDS011;2220;42.670;23.398;2022-08-01T04:17:28;10.60;;;5.68;;
4414;SDS011;2220;42.670;23.398;2022-08-01T04:19:53;7.90;;;4.40;;
4414;SDS011;2220;42.670;23.398;2022-08-01T04:22:19;7.40;;;5.50;;
4414;SDS011;2220;42.670;23.398;2022-08-01T04:24:45;9.52;;;4.85;;
4414;SDS011;2220;42.670;23.398;2022-08-01T04:27:14;10.07;;;4.85;;
4414;SDS011;2220;42.670;23.398;2022-08-01T04:29:40;7.78;;;4.80;;
4414;SDS011;2220;42.670;23.398;2022-08-01T04:32:07;10.88;;;5.32;;
4414;SDS011;2220;42.670;23.398;2022-08-01T04:34:34;11.30;;;5.18;;
4414;SDS011;2220;42.670;23.398;2022-08-01T04:37:01;7.47;;;5.80;;
4414;SDS011;2220;42.670;23.398;2022-08-01T04:39:28;10.55;;;5.88;;
4414;SDS011;2220;42.670;23.398;2022-08-01T04:41:56;15.27;;;6.43;;
4414;SDS011;2220;42.670;23.398;2022-08-01T04:44:22;24.60;;;13.15;;
4414;SDS011;2220;42.670;23.398;2022-08-01T04:46:48;10.52;;;7.45;;
4414;SDS011;2220;42.670;23.398;2022-08-01T04:49:13;14.32;;;6.20;;
4414;SDS011;2220;42.670;23.398;2022-08-01T04:51:53;6.57;;;5.88;;
4414;SDS011;2220;42.670;23.398;2022-08-01T04:54:28;15.70;;;6.97;;
4414;SDS011;2220;42.670;23.398;2022-08-01T04:56:54;27.58;;;15.63;;
4414;SDS011;2220;42.670;23.398;2022-08-01T04:59:24;12.25;;;6.13;;
4414;SDS011;2220;42.670;23.398;2022-08-01T05:02:05;11.70;;;6.13;;
4414;SDS011;2220;42.670;23.398;2022-08-01T05:04:31;13.32;;;6.95;;
4414;SDS011;2220;42.670;23.398;2022-08-01T05:06:56;15.80;;;6.43;;
4414;SDS011;2220;42.670;23.398;2022-08-01T05:09:21;12.70;;;6.40;;
4414;SDS011;2220;42.670;23.398;2022-08-01T05:11:47;11.07;;;6.35;;
4414;SDS011;2220;42.670;23.398;2022-08-01T05:14:12;11.80;;;6.88;;
4414;SDS011;2220;42.670;23.398;2022-08-01T05:16:37;10.23;;;5.78;;
4414;SDS011;2220;42.670;23.398;2022-08-01T05:19:03;12.10;;;5.90;;
4414;SDS011;2220;42.670;23.398;2022-08-01T05:21:28;17.52;;;6.78;;
4414;SDS011;2220;42.670;23.398;2022-08-01T05:23:53;8.48;;;5.47;;
4414;SDS011;2220;42.670;23.398;2022-08-01T05:26:18;11.10;;;4.60;;
4414;SDS011;2220;42.670;23.398;2022-08-01T05:28:44;6.47;;;4.43;;
4414;SDS011;2220;42.670;23.398;2022-08-01T05:31:09;17.08;;;5.65;;
4414;SDS011;2220;42.670;23.398;2022-08-01T05:33:35;8.05;;;4.72;;
4414;SDS011;2220;42.670;23.398;2022-08-01T05:36:00;8.82;;;4.47;;
4414;SDS011;2220;42.670;23.398;2022-08-01T05:38:25;9.45;;;3.30;;
4414;SDS011;2220;42.670;23.398;2022-08-01T05:40:51;8.25;;;3.80;;
4414;SDS011;2220;42.670;23.398;2022-08-01T05:43:16;6.32;;;3.78;;
4414;SDS011;2220;42.670;23.398;2022-08-01T05:45:41;5.88;;;2.78;;
4414;SDS011;2220;42.670;23.398;2022-08-01T05:48:07;8.35;;;4.05;;
4414;SDS011;2220;42.670;23.398;2022-08-01T05:50:32;7.45;;;3.60;;
4414;SDS011;2220;42.670;23.398;2022-08-01T05:52:57;9.07;;;4.00;;
4414;SDS011;2220;42.670;23.398;2022-08-01T05:55:23;8.25;;;3.30;;
4414;SDS011;2220;42.670;23.398;2022-08-01T05:57:48;5.07;;;2.67;;
4414;SDS011;2220;42.670;23.398;2022-08-01T06:00:13;4.60;;;3.05;;
4414;SDS011;2220;42.670;23.398;2022-08-01T06:02:40;4.40;;;3.08;;
4414;SDS011;2220;42.670;23.398;2022-08-01T06:05:07;9.50;;;2.95;;
4414;SDS011;2220;42.670;23.398;2022-08-01T06:07:32;5.85;;;3.45;;
4414;SDS011;2220;42.670;23.398;2022-08-01T06:09:57;4.65;;;2.63;;
4414;SDS011;2220;42.670;23.398;2022-08-01T06:12:22;4.95;;;1.90;;
4414;SDS011;2220;42.670;23.398;2022-08-01T06:14:48;3.28;;;2.72;;
4414;SDS011;2220;42.670;23.398;2022-08-01T06:17:13;2.95;;;2.05;;
4414;SDS011;2220;42.670;23.398;2022-08-01T06:19:38;2.47;;;2.22;;
4414;SDS011;2220;42.670;23.398;2022-08-01T06:22:04;2.42;;;2.22;;
4414;SDS011;2220;42.670;23.398;2022-08-01T06:24:29;3.92;;;1.85;;
4414;SDS011;2220;42.670;23.398;2022-08-01T06:26:54;1.55;;;1.45;;
4414;SDS011;2220;42.670;23.398;2022-08-01T06:29:19;2.67;;;2.47;;
4414;SDS011;2220;42.670;23.398;2022-08-01T06:31:45;4.45;;;2.28;;
4414;SDS011;2220;42.670;23.398;2022-08-01T06:34:10;5.40;;;2.75;;
4414;SDS011;2220;42.670;23.398;2022-08-01T06:36:35;4.40;;;2.55;;
4414;SDS011;2220;42.670;23.398;2022-08-01T06:39:01;2.65;;;2.38;;
4414;SDS011;2220;42.670;23.398;2022-08-01T06:41:26;13.23;;;2.20;;
4414;SDS011;2220;42.670;23.398;2022-08-01T06:43:51;2.38;;;2.20;;
4414;SDS011;2220;42.670;23.398;2022-08-01T06:46:16;5.75;;;3.35;;
4414;SDS011;2220;42.670;23.398;2022-08-01T06:48:42;3.33;;;2.00;;
4414;SDS011;2220;42.670;23.398;2022-08-01T06:51:07;4.40;;;1.67;;
4414;SDS011;2220;42.670;23.398;2022-08-01T06:53:33;3.25;;;1.60;;
4414;SDS011;2220;42.670;23.398;2022-08-01T06:55:59;2.40;;;2.20;;
4414;SDS011;2220;42.670;23.398;2022-08-01T06:58:24;4.05;;;2.05;;
4414;SDS011;2220;42.670;23.398;2022-08-01T07:00:49;2.47;;;1.88;;
4414;SDS011;2220;42.670;23.398;2022-08-01T07:03:15;4.20;;;2.10;;
4414;SDS011;2220;42.670;23.398;2022-08-01T07:05:40;2.25;;;1.80;;
4414;SDS011;2220;42.670;23.398;2022-08-01T07:08:05;4.10;;;2.10;;
4414;SDS011;2220;42.670;23.398;2022-08-01T07:10:31;3.50;;;2.00;;
4414;SDS011;2220;42.670;23.398;2022-08-01T07:12:56;1.42;;;1.33;;
4414;SDS011;2220;42.670;23.398;2022-08-01T07:15:21;1.77;;;1.67;;
4414;SDS011;2220;42.670;23.398;2022-08-01T07:17:51;1.50;;;1.40;;
4414;SDS011;2220;42.670;23.398;2022-08-01T07:20:16;2.95;;;2.42;;
4414;SDS011;2220;42.670;23.398;2022-08-01T07:22:42;3.00;;;0.95;;
4414;SDS011;2220;42.670;23.398;2022-08-01T07:25:07;4.05;;;2.28;;
4414;SDS011;2220;42.670;23.398;2022-08-01T07:27:33;3.47;;;1.70;;
4414;SDS011;2220;42.670;23.398;2022-08-01T07:29:59;6.20;;;1.88;;
4414;SDS011;2220;42.670;23.398;2022-08-01T07:32:24;3.40;;;1.80;;
4414;SDS011;2220;42.670;23.398;2022-08-01T07:34:49;1.92;;;1.70;;
4414;SDS011;2220;42.670;23.398;2022-08-01T07:37:15;2.13;;;1.55;;
4414;SDS011;2220;42.670;23.398;2022-08-01T07:39:40;4.82;;;1.73;;
4414;SDS011;2220;42.670;23.398;2022-08-01T07:42:05;2.05;;;1.95;;
4414;SDS011;2220;42.670;23.398;2022-08-01T07:44:30;3.15;;;2.55;;
4414;SDS011;2220;42.670;23.398;2022-08-01T07:46:56;1.92;;;1.83;;
4414;SDS011;2220;42.670;23.398;2022-08-01T07:49:21;3.55;;;2.38;;
4414;SDS011;2220;42.670;23.398;2022-08-01T07:51:47;4.68;;;1.60;;
4414;SDS011;2220;42.670;23.398;2022-08-01T07:54:12;2.05;;;1.52;;
4414;SDS011;2220;42.670;23.398;2022-08-01T07:56:37;3.08;;;2.03;;
4414;SDS011;2220;42.670;23.398;2022-08-01T07:59:02;2.72;;;1.70;;
4414;SDS011;2220;42.670;23.398;2022-08-01T08:01:28;9.20;;;5.63;;
4414;SDS011;2220;42.670;23.398;2022-08-01T08:03:53;4.68;;;2.20;;
4414;SDS011;2220;42.670;23.398;2022-08-01T08:06:18;1.25;;;0.90;;
4414;SDS011;2220;42.670;23.398;2022-08-01T08:08:44;10.57;;;1.17;;
4414;SDS011;2220;42.670;23.398;2022-08-01T08:11:09;5.00;;;2.13;;
4414;SDS011;2220;42.670;23.398;2022-08-01T08:13:34;8.73;;;1.92;;
4414;SDS011;2220;42.670;23.398;2022-08-01T08:16:00;1.48;;;1.48;;
4414;SDS011;2220;42.670;23.398;2022-08-01T08:18:25;3.40;;;2.05;;
4414;SDS011;2220;42.670;23.398;2022-08-01T08:20:50;10.80;;;2.10;;
4414;SDS011;2220;42.670;23.398;2022-08-01T08:23:16;4.57;;;1.67;;
4414;SDS011;2220;42.670;23.398;2022-08-01T08:25:59;3.60;;;2.20;;
4414;SDS011;2220;42.670;23.398;2022-08-01T08:28:25;3.50;;;1.80;;
4414;SDS011;2220;42.670;23.398;2022-08-01T08:30:50;4.32;;;2.67;;
4414;SDS011;2220;42.670;23.398;2022-08-01T08:33:15;2.35;;;2.17;;
4414;SDS011;2220;42.670;23.398;2022-08-01T08:35:40;3.67;;;2.20;;
4414;SDS011;2220;42.670;23.398;2022-08-01T08:38:06;3.85;;;2.55;;
4414;SDS011;2220;42.670;23.398;2022-08-01T08:40:31;3.95;;;1.85;;
4414;SDS011;2220;42.670;23.398;2022-08-01T08:42:59;1.52;;;1.33;;
4414;SDS011;2220;42.670;23.398;2022-08-01T08:45:25;1.40;;;1.30;;
4414;SDS011;2220;42.670;23.398;2022-08-01T08:47:51;2.42;;;2.22;;
4414;SDS011;2220;42.670;23.398;2022-08-01T08:50:17;3.28;;;2.08;;
4414;SDS011;2220;42.670;23.398;2022-08-01T08:52:42;1.38;;;1.30;;
4414;SDS011;2220;42.670;23.398;2022-08-01T08:55:08;1.90;;;1.75;;
4414;SDS011;2220;42.670;23.398;2022-08-01T08:57:33;2.72;;;1.90;;
4414;SDS011;2220;42.670;23.398;2022-08-01T08:59:59;5.45;;;2.20;;
4414;SDS011;2220;42.670;23.398;2022-08-01T09:02:25;5.22;;;2.35;;
4414;SDS011;2220;42.670;23.398;2022-08-01T09:04:50;3.22;;;2.38;;
4414;SDS011;2220;42.670;23.398;2022-08-01T09:07:15;2.53;;;1.83;;
4414;SDS011;2220;42.670;23.398;2022-08-01T09:09:41;2.88;;;1.75;;
4414;SDS011;2220;42.670;23.398;2022-08-01T09:12:06;2.38;;;1.70;;
4414;SDS011;2220;42.670;23.398;2022-08-01T09:14:31;2.78;;;1.98;;
4414;SDS011;2220;42.670;23.398;2022-08-01T09:19:25;3.42;;;1.77;;
4414;SDS011;2220;42.670;23.398;2022-08-01T09:22:00;4.82;;;1.90;;
4414;SDS011;2220;42.670;23.398;2022-08-01T09:24:26;5.20;;;1.90;;
4414;SDS011;2220;42.670;23.398;2022-08-01T09:26:52;4.35;;;1.83;;
4414;SDS011;2220;42.670;23.398;2022-08-01T09:29:19;2.83;;;2.17;;
4414;SDS011;2220;42.670;23.398;2022-08-01T09:31:45;1.50;;;1.40;;
4414;SDS011;2220;42.670;23.398;2022-08-01T09:34:11;8.15;;;2.00;;
4414;SDS011;2220;42.670;23.398;2022-08-01T09:39:32;1.70;;;0.80;;
4414;SDS011;2220;42.670;23.398;2022-08-01T09:41:59;4.00;;;1.70;;
4414;SDS011;2220;42.670;23.398;2022-08-01T09:44:40;2.28;;;2.08;;
4414;SDS011;2220;42.670;23.398;2022-08-01T09:47:06;2.75;;;1.70;;
4414;SDS011;2220;42.670;23.398;2022-08-01T09:49:33;1.80;;;1.70;;
4414;SDS011;2220;42.670;23.398;2022-08-01T09:51:59;4.45;;;1.75;;
4414;SDS011;2220;42.670;23.398;2022-08-01T09:54:34;1.88;;;1.77;;
4414;SDS011;2220;42.670;23.398;2022-08-01T09:59:34;2.90;;;1.35;;
4414;SDS011;2220;42.670;23.398;2022-08-01T10:01:59;2.00;;;1.63;;
4414;SDS011;2220;42.670;23.398;2022-08-01T10:04:24;1.95;;;1.70;;
4414;SDS011;2220;42.670;23.398;2022-08-01T10:06:50;7.30;;;1.60;;
4414;SDS011;2220;42.670;23.398;2022-08-01T10:09:28;1.63;;;1.52;;
4414;SDS011;2220;42.670;23.398;2022-08-01T10:11:55;1.70;;;1.60;;
4414;SDS011;2220;42.670;23.398;2022-08-01T10:14:20;5.03;;;1.88;;
4414;SDS011;2220;42.670;23.398;2022-08-01T10:16:47;4.15;;;1.52;;
4414;SDS011;2220;42.670;23.398;2022-08-01T10:19:13;1.80;;;1.70;;
4414;SDS011;2220;42.670;23.398;2022-08-01T10:21:38;1.70;;;1.60;;
4414;SDS011;2220;42.670;23.398;2022-08-01T10:24:04;2.15;;;1.60;;
4414;SDS011;2220;42.670;23.398;2022-08-01T10:26:32;3.83;;;2.33;;
4414;SDS011;2220;42.670;23.398;2022-08-01T10:28:58;2.65;;;1.80;;
4414;SDS011;2220;42.670;23.398;2022-08-01T10:31:23;2.25;;;1.75;;
4414;SDS011;2220;42.670;23.398;2022-08-01T10:33:49;4.00;;;1.67;;
4414;SDS011;2220;42.670;23.398;2022-08-01T10:36:16;4.40;;;1.70;;
4414;SDS011;2220;42.670;23.398;2022-08-01T10:38:42;2.38;;;1.58;;
4414;SDS011;2220;42.670;23.398;2022-08-01T10:41:07;5.13;;;1.60;;
4414;SDS011;2220;42.670;23.398;2022-08-01T10:43:33;9.23;;;1.67;;
4414;SDS011;2220;42.670;23.398;2022-08-01T10:45:58;1.98;;;1.80;;
4414;SDS011;2220;42.670;23.398;2022-08-01T10:50:51;4.25;;;1.60;;
4414;SDS011;2220;42.670;23.398;2022-08-01T10:58:13;6.28;;;1.30;;
4414;SDS011;2220;42.670;23.398;2022-08-01T11:00:39;3.30;;;1.40;;
4414;SDS011;2220;42.670;23.398;2022-08-01T11:03:04;2.42;;;1.50;;
4414;SDS011;2220;42.670;23.398;2022-08-01T11:05:33;1.65;;;1.55;;
4414;SDS011;2220;42.670;23.398;2022-08-01T11:08:08;4.15;;;1.30;;
4414;SDS011;2220;42.670;23.398;2022-08-01T11:10:40;1.35;;;1.25;;
4414;SDS011;2220;42.670;23.398;2022-08-01T11:13:08;4.55;;;1.60;;
4414;SDS011;2220;42.670;23.398;2022-08-01T11:15:34;1.30;;;1.30;;
4414;SDS011;2220;42.670;23.398;2022-08-01T11:18:03;2.08;;;1.88;;
4414;SDS011;2220;42.670;23.398;2022-08-01T11:20:30;3.10;;;1.80;;
4414;SDS011;2220;42.670;23.398;2022-08-01T11:30:51;1.90;;;1.80;;
4414;SDS011;2220;42.670;23.398;2022-08-01T11:33:17;2.00;;;1.90;;
4414;SDS011;2220;42.670;23.398;2022-08-01T11:38:27;8.02;;;1.70;;
4414;SDS011;2220;42.670;23.398;2022-08-01T11:54:31;2.50;;;1.58;;
4414;SDS011;2220;42.670;23.398;2022-08-01T11:56:58;1.55;;;1.50;;
4414;SDS011;2220;42.670;23.398;2022-08-01T11:59:24;3.08;;;1.70;;
4414;SDS011;2220;42.670;23.398;2022-08-01T12:01:49;2.40;;;1.38;;
4414;SDS011;2220;42.670;23.398;2022-08-01T12:04:15;1.77;;;1.67;;
4414;SDS011;2220;42.670;23.398;2022-08-01T12:06:40;2.85;;;1.90;;
4414;SDS011;2220;42.670;23.398;2022-08-01T12:09:15;3.58;;;1.80;;
4414;SDS011;2220;42.670;23.398;2022-08-01T12:11:40;2.53;;;1.80;;
4414;SDS011;2220;42.670;23.398;2022-08-01T12:14:06;1.95;;;1.85;;
4414;SDS011;2220;42.670;23.398;2022-08-01T12:16:32;1.80;;;1.70;;
4414;SDS011;2220;42.670;23.398;2022-08-01T12:18:57;11.93;;;2.00;;
4414;SDS011;2220;42.670;23.398;2022-08-01T12:21:23;2.50;;;1.60;;
4414;SDS011;2220;42.670;23.398;2022-08-01T12:24:09;1.80;;;1.33;;
4414;SDS011;2220;42.670;23.398;2022-08-01T12:26:40;4.38;;;1.90;;
4414;SDS011;2220;42.670;23.398;2022-08-01T12:29:05;3.53;;;1.85;;
4414;SDS011;2220;42.670;23.398;2022-08-01T12:31:31;1.13;;;1.13;;
4414;SDS011;2220;42.670;23.398;2022-08-01T12:33:57;2.05;;;1.83;;
4414;SDS011;2220;42.670;23.398;2022-08-01T12:36:28;1.85;;;1.75;;
4414;SDS011;2220;42.670;23.398;2022-08-01T12:38:54;2.05;;;1.80;;
4414;SDS011;2220;42.670;23.398;2022-08-01T12:41:21;1.80;;;1.65;;
4414;SDS011;2220;42.670;23.398;2022-08-01T12:43:47;2.55;;;2.40;;
4414;SDS011;2220;42.670;23.398;2022-08-01T12:46:12;5.07;;;2.10;;
4414;SDS011;2220;42.670;23.398;2022-08-01T12:48:42;2.75;;;1.65;;
4414;SDS011;2220;42.670;23.398;2022-08-01T12:51:08;2.72;;;2.20;;
4414;SDS011;2220;42.670;23.398;2022-08-01T12:53:34;1.63;;;1.52;;
4414;SDS011;2220;42.670;23.398;2022-08-01T12:56:00;2.15;;;2.03;;
4414;SDS011;2220;42.670;23.398;2022-08-01T12:58:32;2.10;;;1.70;;
4414;SDS011;2220;42.670;23.398;2022-08-01T13:01:04;2.00;;;1.90;;
4414;SDS011;2220;42.670;23.398;2022-08-01T13:03:29;2.10;;;1.90;;
4414;SDS011;2220;42.670;23.398;2022-08-01T13:05:55;3.25;;;1.85;;
4414;SDS011;2220;42.670;23.398;2022-08-01T13:08:28;2.55;;;1.60;;
4414;SDS011;2220;42.670;23.398;2022-08-01T13:16:14;3.20;;;1.50;;
4414;SDS011;2220;42.670;23.398;2022-08-01T13:18:40;1.83;;;1.60;;
4414;SDS011;2220;42.670;23.398;2022-08-01T13:23:34;1.65;;;1.60;;
4414;SDS011;2220;42.670;23.398;2022-08-01T13:26:00;1.90;;;1.80;;
4414;SDS011;2220;42.670;23.398;2022-08-01T13:28:26;1.92;;;1.83;;
4414;SDS011;2220;42.670;23.398;2022-08-01T13:33:16;2.60;;;2.13;;
4414;SDS011;2220;42.670;23.398;2022-08-01T13:35:42;1.73;;;1.60;;
4414;SDS011;2220;42.670;23.398;2022-08-01T13:38:07;1.80;;;1.70;;
4414;SDS011;2220;42.670;23.398;2022-08-01T13:40:32;2.92;;;1.50;;
4414;SDS011;2220;42.670;23.398;2022-08-01T13:42:58;6.20;;;1.70;;
4414;SDS011;2220;42.670;23.398;2022-08-01T13:45:23;4.70;;;1.80;;
4414;SDS011;2220;42.670;23.398;2022-08-01T13:47:48;1.63;;;1.50;;
4414;SDS011;2220;42.670;23.398;2022-08-01T13:50:14;1.50;;;1.40;;
4414;SDS011;2220;42.670;23.398;2022-08-01T13:52:39;5.07;;;1.80;;
4414;SDS011;2220;42.670;23.398;2022-08-01T13:55:05;2.83;;;1.30;;
4414;SDS011;2220;42.670;23.398;2022-08-01T13:57:31;1.20;;;1.20;;
4414;SDS011;2220;42.670;23.398;2022-08-01T13:59:56;3.08;;;1.58;;
4414;SDS011;2220;42.670;23.398;2022-08-01T14:02:24;3.55;;;1.50;;
4414;SDS011;2220;42.670;23.398;2022-08-01T14:04:50;2.05;;;1.45;;
4414;SDS011;2220;42.670;23.398;2022-08-01T14:07:15;2.35;;;1.60;;
4414;SDS011;2220;42.670;23.398;2022-08-01T14:09:41;1.55;;;1.38;;
4414;SDS011;2220;42.670;23.398;2022-08-01T14:12:07;1.50;;;1.40;;
4414;SDS011;2220;42.670;23.398;2022-08-01T14:14:32;2.58;;;1.35;;
4414;SDS011;2220;42.670;23.398;2022-08-01T14:16:57;1.58;;;1.40;;
4414;SDS011;2220;42.670;23.398;2022-08-01T14:19:23;2.22;;;1.80;;
4414;SDS011;2220;42.670;23.398;2022-08-01T14:21:48;2.75;;;2.35;;
4414;SDS011;2220;42.670;23.398;2022-08-01T14:24:13;1.80;;;1.60;;
4414;SDS011;2220;42.670;23.398;2022-08-01T14:26:38;6.13;;;1.67;;
4414;SDS011;2220;42.670;23.398;2022-08-01T14:29:04;1.73;;;1.63;;
4414;SDS011;2220;42.670;23.398;2022-08-01T14:31:29;4.15;;;1.70;;
4414;SDS011;2220;42.670;23.398;2022-08-01T14:33:54;2.47;;;1.38;;
4414;SDS011;2220;42.670;23.398;2022-08-01T14:36:20;1.90;;;1.55;;
4414;SDS011;2220;42.670;23.398;2022-08-01T14:38:45;6.55;;;1.73;;
4414;SDS011;2220;42.670;23.398;2022-08-01T14:41:10;1.42;;;1.33;;
4414;SDS011;2220;42.670;23.398;2022-08-01T14:43:36;2.28;;;1.40;;
4414;SDS011;2220;42.670;23.398;2022-08-01T14:46:01;1.45;;;1.35;;
4414;SDS011;2220;42.670;23.398;2022-08-01T14:48:28;1.60;;;1.50;;
4414;SDS011;2220;42.670;23.398;2022-08-01T14:50:53;1.20;;;0.95;;
4414;SDS011;2220;42.670;23.398;2022-08-01T14:53:18;4.03;;;1.63;;
4414;SDS011;2220;42.670;23.398;2022-08-01T14:55:44;2.28;;;1.20;;
4414;SDS011;2220;42.670;23.398;2022-08-01T14:58:09;4.72;;;1.30;;
4414;SDS011;2220;42.670;23.398;2022-08-01T15:00:34;1.27;;;1.23;;
4414;SDS011;2220;42.670;23.398;2022-08-01T15:03:00;3.20;;;1.55;;
4414;SDS011;2220;42.670;23.398;2022-08-01T15:05:25;1.40;;;1.30;;
4414;SDS011;2220;42.670;23.398;2022-08-01T15:07:50;2.88;;;1.40;;
4414;SDS011;2220;42.670;23.398;2022-08-01T15:10:15;1.10;;;1.10;;
4414;SDS011;2220;42.670;23.398;2022-08-01T15:12:41;1.13;;;1.13;;
4414;SDS011;2220;42.670;23.398;2022-08-01T15:15:07;1.30;;;1.23;;
4414;SDS011;2220;42.670;23.398;2022-08-01T15:17:32;3.67;;;1.38;;
4414;SDS011;2220;42.670;23.398;2022-08-01T15:19:59;1.95;;;1.33;;
4414;SDS011;2220;42.670;23.398;2022-08-01T15:22:24;1.50;;;1.40;;
4414;SDS011;2220;42.670;23.398;2022-08-01T15:24:51;1.48;;;1.15;;
4414;SDS011;2220;42.670;23.398;2022-08-01T15:27:17;3.58;;;1.63;;
4414;SDS011;2220;42.670;23.398;2022-08-01T15:29:42;1.98;;;1.50;;
4414;SDS011;2220;42.670;23.398;2022-08-01T15:32:08;3.75;;;2.05;;
4414;SDS011;2220;42.670;23.398;2022-08-01T15:34:34;5.28;;;1.25;;
4414;SDS011;2220;42.670;23.398;2022-08-01T15:37:00;3.38;;;2.60;;
4414;SDS011;2220;42.670;23.398;2022-08-01T15:39:26;3.03;;;2.47;;
4414;SDS011;2220;42.670;23.398;2022-08-01T15:41:51;4.97;;;2.25;;
4414;SDS011;2220;42.670;23.398;2022-08-01T15:44:16;2.00;;;1.90;;
4414;SDS011;2220;42.670;23.398;2022-08-01T15:46:47;2.67;;;1.55;;
4414;SDS011;2220;42.670;23.398;2022-08-01T15:49:12;1.45;;;1.35;;
4414;SDS011;2220;42.670;23.398;2022-08-01T15:51:37;1.58;;;1.48;;
4414;SDS011;2220;42.670;23.398;2022-08-01T15:54:03;8.68;;;1.92;;
4414;SDS011;2220;42.670;23.398;2022-08-01T15:56:31;4.15;;;1.95;;
4414;SDS011;2220;42.670;23.398;2022-08-01T15:58:56;3.30;;;1.60;;
4414;SDS011;2220;42.670;23.398;2022-08-01T16:01:21;2.85;;;1.48;;